Time;durP1;ratioP1;P1;durP2;ratioP2;P2;SDS_P1;SDS_P2;PMS_P1;PMS_P2;Temp;Humidity;BMP_temperature;BMP_pressure;BME280_temperature;BME280_humidity;BME280_pressure;Samples;Min_cycle;Max_cycle;Signal;HPM_P1;HPM_P2
2022/07/29 00:03:33;;;;;;;8.60;0.90;;;;;;;;;;10487916;28;20218;-81
2022/07/29 00:08:34;;;;;;;1.85;0.80;;;;;;;;;;10479579;28;20658;-82
2022/07/29 00:13:35;;;;;;;3.38;0.70;;;;;;;;;;10491944;28;20233;-81
2022/07/29 00:18:36;;;;;;;6.13;0.93;;;;;;;;;;10483514;28;20273;-83
2022/07/29 00:23:37;;;;;;;0.70;0.70;;;;;;;;;;10478620;28;20214;-81
2022/07/29 00:28:39;;;;;;;3.72;1.00;;;;;;;;;;10489137;28;20319;-82
2022/07/29 00:33:40;;;;;;;0.85;0.70;;;;;;;;;;10474412;28;20709;-82
2022/07/29 00:38:44;;;;;;;1.17;1.17;;;;;;;;;;10480378;28;20170;-82
2022/07/29 00:43:46;;;;;;;1.00;0.50;;;;;;;;;;10475135;28;20210;-82
2022/07/29 00:48:47;;;;;;;3.83;1.00;;;;;;;;;;10451262;28;20205;-82
2022/07/29 00:53:50;;;;;;;2.25;0.90;;;;;;;;;;10437858;28;20203;-82
2022/07/29 00:58:52;;;;;;;0.70;0.70;;;;;;;;;;10484906;28;20269;-82
2022/07/29 01:03:53;;;;;;;1.55;0.82;;;;;;;;;;10470838;28;20252;-82
2022/07/29 01:08:54;;;;;;;2.08;0.50;;;;;;;;;;10477715;28;20197;-83
2022/07/29 01:13:55;;;;;;;1.05;0.70;;;;;;;;;;10482247;28;20222;-82
2022/07/29 01:19:00;;;;;;;0.93;0.82;;;;;;;;;;10489867;28;20201;-82
2022/07/29 01:24:04;;;;;;;1.15;0.88;;;;;;;;;;10458286;28;20225;-82
2022/07/29 01:29:05;;;;;;;2.35;0.80;;;;;;;;;;10454728;28;20185;-83
2022/07/29 01:34:09;;;;;;;4.82;1.08;;;;;;;;;;10454149;28;20356;-84
2022/07/29 01:39:10;;;;;;;1.27;0.80;;;;;;;;;;10454546;28;20178;-82
2022/07/29 01:44:17;;;;;;;2.50;0.90;;;;;;;;;;10482350;28;20221;-82
2022/07/29 01:49:22;;;;;;;5.45;1.00;;;;;;;;;;10494413;28;20273;-82
2022/07/29 01:54:47;;;;;;;0.70;0.70;;;;;;;;;;10491312;28;20233;-82
2022/07/29 01:59:49;;;;;;;1.33;0.77;;;;;;;;;;10494090;28;20251;-83
2022/07/29 02:04:51;;;;;;;3.78;1.00;;;;;;;;;;10489185;28;20229;-83
2022/07/29 02:09:52;;;;;;;0.75;0.75;;;;;;;;;;10466569;28;20183;-83
2022/07/29 02:14:55;;;;;;;1.00;0.90;;;;;;;;;;10464414;28;20210;-82
2022/07/29 02:19:57;;;;;;;2.08;0.95;;;;;;;;;;10500132;28;20201;-83
2022/07/29 02:24:59;;;;;;;4.05;1.00;;;;;;;;;;10506451;28;20269;-83
2022/07/29 02:30:01;;;;;;;1.42;1.13;;;;;;;;;;10470258;28;20179;-83
2022/07/29 02:35:02;;;;;;;2.05;0.85;;;;;;;;;;10500300;28;20225;-83
2022/07/29 02:40:04;;;;;;;6.40;0.90;;;;;;;;;;10494922;28;20173;-83
2022/07/29 02:45:06;;;;;;;3.85;1.10;;;;;;;;;;10500968;28;20218;-84
2022/07/29 02:50:13;;;;;;;10.25;1.35;;;;;;;;;;10504202;28;20276;-83
2022/07/29 02:55:16;;;;;;;0.80;0.80;;;;;;;;;;10492590;28;20768;-83
2022/07/29 03:00:17;;;;;;;5.18;0.85;;;;;;;;;;10496830;28;20205;-84
2022/07/29 03:05:20;;;;;;;2.17;0.98;;;;;;;;;;10496755;28;20210;-84
2022/07/29 03:10:21;;;;;;;2.47;1.60;;;;;;;;;;10496377;28;20651;-85
2022/07/29 03:15:23;;;;;;;1.10;1.02;;;;;;;;;;10501782;28;20177;-84
2022/07/29 03:20:24;;;;;;;4.20;1.17;;;;;;;;;;10460090;28;20293;-83
2022/07/29 03:25:26;;;;;;;1.25;1.25;;;;;;;;;;10500370;28;20281;-85
2022/07/29 03:30:30;;;;;;;1.98;1.55;;;;;;;;;;10494179;28;20265;-86
2022/07/29 03:35:31;;;;;;;5.68;1.40;;;;;;;;;;10495803;28;20259;-84
2022/07/29 03:40:38;;;;;;;2.50;1.48;;;;;;;;;;10492168;28;20221;-85
2022/07/29 03:45:41;;;;;;;4.95;1.75;;;;;;;;;;10497137;28;20220;-84
2022/07/29 03:50:42;;;;;;;3.10;1.65;;;;;;;;;;10494640;28;20214;-84
2022/07/29 03:55:45;;;;;;;4.95;1.65;;;;;;;;;;10502904;28;20177;-84
2022/07/29 04:00:47;;;;;;;2.60;1.80;;;;;;;;;;10499140;28;20256;-84
2022/07/29 04:06:07;;;;;;;2.95;2.42;;;;;;;;;;10498433;28;20202;-84
2022/07/29 04:11:08;;;;;;;6.47;2.45;;;;;;;;;;10501818;28;20991;-84
2022/07/29 04:16:09;;;;;;;3.08;2.03;;;;;;;;;;10471003;28;20178;-87
2022/07/29 04:21:10;;;;;;;4.85;1.95;;;;;;;;;;10499160;28;20290;-85
2022/07/29 04:26:11;;;;;;;3.00;2.25;;;;;;;;;;10497970;28;20593;-84
2022/07/29 04:31:13;;;;;;;2.08;1.75;;;;;;;;;;10490719;28;20222;-87
2022/07/29 04:36:14;;;;;;;2.05;1.90;;;;;;;;;;10456078;28;20190;-84
2022/07/29 04:41:15;;;;;;;4.28;2.22;;;;;;;;;;10452528;28;20273;-85
2022/07/29 04:46:16;;;;;;;5.60;2.20;;;;;;;;;;10458192;28;20247;-86
2022/07/29 04:51:17;;;;;;;4.63;2.40;;;;;;;;;;10423223;28;20289;-81
2022/07/29 04:56:18;;;;;;;2.20;2.20;;;;;;;;;;10443223;28;20191;-81
2022/07/29 05:01:20;;;;;;;2.67;2.58;;;;;;;;;;10441191;28;20214;-87
2022/07/29 05:06:21;;;;;;;5.28;2.95;;;;;;;;;;10454907;28;20228;-87
2022/07/29 05:11:22;;;;;;;5.07;2.92;;;;;;;;;;10433115;28;20215;-87
2022/07/29 05:16:23;;;;;;;2.90;2.63;;;;;;;;;;10460363;28;20201;-88
2022/07/29 05:21:24;;;;;;;6.18;3.70;;;;;;;;;;10456804;28;20663;-89
2022/07/29 05:26:25;;;;;;;8.07;3.65;;;;;;;;;;10457516;28;20274;-88
2022/07/29 05:31:26;;;;;;;5.63;3.50;;;;;;;;;;10437672;28;20228;-88
2022/07/29 05:36:27;;;;;;;6.93;3.90;;;;;;;;;;10469732;28;20185;-87
2022/07/29 05:41:28;;;;;;;4.00;2.83;;;;;;;;;;10494346;28;20237;-88
2022/07/29 05:46:30;;;;;;;6.63;2.85;;;;;;;;;;10462536;28;20194;-86
2022/07/29 05:51:31;;;;;;;7.47;2.83;;;;;;;;;;10496421;28;20213;-83
2022/07/29 05:56:32;;;;;;;2.58;2.38;;;;;;;;;;10513564;28;20182;-87
2022/07/29 06:01:33;;;;;;;4.10;2.60;;;;;;;;;;10508738;28;20267;-89
2022/07/29 06:06:35;;;;;;;2.55;2.35;;;;;;;;;;10512583;28;20181;-89
2022/07/29 06:11:35;;;;;;;2.65;2.25;;;;;;;;;;10499198;28;20221;-89
2022/07/29 06:16:37;;;;;;;2.47;2.25;;;;;;;;;;10510412;28;20268;-84
2022/07/29 06:21:41;;;;;;;3.85;2.30;;;;;;;;;;10512781;28;20218;-87
2022/07/29 06:26:43;;;;;;;3.95;2.70;;;;;;;;;;10504597;28;20167;-89
2022/07/29 06:31:44;;;;;;;3.65;2.38;;;;;;;;;;10480909;28;20704;-89
2022/07/29 06:36:45;;;;;;;2.40;2.20;;;;;;;;;;10477881;28;20190;-86
2022/07/29 06:41:48;;;;;;;5.18;2.15;;;;;;;;;;10511414;28;20209;-89
2022/07/29 06:46:51;;;;;;;4.47;2.38;;;;;;;;;;10499820;28;20197;-87
2022/07/29 06:51:52;;;;;;;6.70;2.53;;;;;;;;;;10503347;28;20217;-87
2022/07/29 06:56:54;;;;;;;4.00;2.15;;;;;;;;;;10507214;28;20242;-87
2022/07/29 07:01:55;;;;;;;2.92;2.30;;;;;;;;;;10498906;28;20309;-88
2022/07/29 07:06:56;;;;;;;3.38;2.13;;;;;;;;;;10497742;28;20182;-85
2022/07/29 07:11:57;;;;;;;5.10;2.70;;;;;;;;;;10508089;28;20206;-85
2022/07/29 07:17:00;;;;;;;5.97;3.10;;;;;;;;;;10504300;28;20892;-84
2022/07/29 07:22:01;;;;;;;4.15;2.83;;;;;;;;;;10506935;28;20253;-85
2022/07/29 07:27:02;;;;;;;5.50;2.90;;;;;;;;;;10492618;28;20174;-83
2022/07/29 07:32:03;;;;;;;2.80;2.60;;;;;;;;;;10502698;28;20352;-83
2022/07/29 07:37:04;;;;;;;5.47;2.47;;;;;;;;;;10502068;28;20183;-83
2022/07/29 07:42:05;;;;;;;3.72;3.05;;;;;;;;;;10505124;28;20222;-84
2022/07/29 07:47:06;;;;;;;4.15;2.72;;;;;;;;;;10503205;28;20202;-85
2022/07/29 07:52:07;;;;;;;5.05;2.88;;;;;;;;;;10470272;28;20304;-84
2022/07/29 07:57:08;;;;;;;7.40;3.70;;;;;;;;;;10488962;28;20550;-85
2022/07/29 08:02:09;;;;;;;5.72;3.80;;;;;;;;;;10468820;28;20243;-83
2022/07/29 08:07:11;;;;;;;9.18;4.03;;;;;;;;;;10505914;28;20676;-84
2022/07/29 08:12:12;;;;;;;9.30;3.35;;;;;;;;;;10490643;28;20210;-83
2022/07/29 08:17:13;;;;;;;4.32;3.47;;;;;;;;;;10502053;28;20217;-82
2022/07/29 08:22:14;;;;;;;10.07;3.85;;;;;;;;;;10501877;28;20736;-84
2022/07/29 08:27:15;;;;;;;13.63;4.95;;;;;;;;;;10505240;28;20634;-82
2022/07/29 08:32:16;;;;;;;5.63;3.63;;;;;;;;;;10488456;28;20229;-83
2022/07/29 08:37:17;;;;;;;4.32;3.35;;;;;;;;;;10497651;28;20224;-82
2022/07/29 08:42:18;;;;;;;5.78;3.72;;;;;;;;;;10501438;28;20259;-84
2022/07/29 08:47:19;;;;;;;5.45;3.05;;;;;;;;;;10501325;28;20198;-83
2022/07/29 08:52:21;;;;;;;6.93;3.58;;;;;;;;;;10499747;28;20305;-83
2022/07/29 08:57:23;;;;;;;3.47;2.78;;;;;;;;;;10499079;28;20186;-85
2022/07/29 09:02:25;;;;;;;8.93;3.20;;;;;;;;;;10492161;28;20637;-81
2022/07/29 09:07:26;;;;;;;4.85;3.25;;;;;;;;;;10487350;28;20178;-81
2022/07/29 09:12:27;;;;;;;8.02;4.10;;;;;;;;;;10494373;28;20262;-81
2022/07/29 09:17:48;;;;;;;7.57;3.42;;;;;;;;;;10491618;28;20206;-82
2022/07/29 09:22:52;;;;;;;7.55;3.35;;;;;;;;;;10466765;28;20719;-82
2022/07/29 09:27:53;;;;;;;7.25;3.63;;;;;;;;;;10468024;28;20199;-84
2022/07/29 09:32:55;;;;;;;6.88;3.10;;;;;;;;;;10494244;28;20657;-81
2022/07/29 09:37:56;;;;;;;6.38;3.00;;;;;;;;;;10495322;28;20166;-81
2022/07/29 09:42:58;;;;;;;3.63;2.70;;;;;;;;;;10489897;28;20213;-80
2022/07/29 09:48:02;;;;;;;2.63;2.53;;;;;;;;;;10494936;28;20202;-80
2022/07/29 09:53:03;;;;;;;5.65;2.33;;;;;;;;;;10489740;28;20213;-79
2022/07/29 09:58:18;;;;;;;3.63;1.70;;;;;;;;;;10482437;28;20193;-80
2022/07/29 10:03:20;;;;;;;2.08;1.83;;;;;;;;;;10483273;28;20218;-79
2022/07/29 10:08:30;;;;;;;5.88;1.67;;;;;;;;;;10480731;28;20741;-79
2022/07/29 10:13:31;;;;;;;5.22;1.92;;;;;;;;;;10466566;28;20205;-76
2022/07/29 10:18:32;;;;;;;3.22;1.73;;;;;;;;;;10477721;28;20255;-79
2022/07/29 10:23:35;;;;;;;3.58;1.77;;;;;;;;;;10475929;28;20218;-78
2022/07/29 10:28:36;;;;;;;4.68;1.35;;;;;;;;;;10469954;28;20193;-77
2022/07/29 10:33:43;;;;;;;2.05;1.30;;;;;;;;;;10479174;28;20230;-77
2022/07/29 10:38:54;;;;;;;1.65;1.55;;;;;;;;;;10497683;28;20238;-77
2022/07/29 10:44:01;;;;;;;4.47;1.70;;;;;;;;;;10471559;28;20266;-78
2022/07/29 10:49:14;;;;;;;2.78;1.30;;;;;;;;;;10493045;28;20693;-78
2022/07/29 10:54:18;;;;;;;3.92;1.20;;;;;;;;;;10466358;28;20210;-76
2022/07/29 10:59:20;;;;;;;4.50;1.30;;;;;;;;;;10486782;28;20177;-77
2022/07/29 11:04:42;;;;;;;1.85;0.95;;;;;;;;;;10497165;28;20270;-76
2022/07/29 11:09:45;;;;;;;1.67;0.90;;;;;;;;;;10462951;28;20698;-77
2022/07/29 11:14:52;;;;;;;1.58;0.80;;;;;;;;;;10496270;28;20550;-77
2022/07/29 11:20:13;;;;;;;2.88;1.02;;;;;;;;;;10485267;28;20203;-77
2022/07/29 11:25:15;;;;;;;2.20;0.98;;;;;;;;;;10495040;28;20404;-76
2022/07/29 11:30:18;;;;;;;2.28;1.10;;;;;;;;;;10463972;28;20174;-76
2022/07/29 11:35:21;;;;;;;5.43;1.17;;;;;;;;;;10484181;28;20218;-76
2022/07/29 11:40:22;;;;;;;1.65;0.93;;;;;;;;;;10481765;28;20170;-77
2022/07/29 11:45:27;;;;;;;2.35;1.08;;;;;;;;;;10484275;28;20304;-76
2022/07/29 11:50:29;;;;;;;2.58;1.17;;;;;;;;;;10467738;28;20194;-75
2022/07/29 11:55:31;;;;;;;1.75;0.88;;;;;;;;;;10480997;28;20653;-76
2022/07/29 12:00:40;;;;;;;2.70;1.02;;;;;;;;;;10443214;28;20245;-75
2022/07/29 12:05:45;;;;;;;9.32;1.38;;;;;;;;;;10463829;28;20209;-75
2022/07/29 12:10:47;;;;;;;1.75;1.10;;;;;;;;;;10493120;28;20267;-76
2022/07/29 12:15:56;;;;;;;3.70;1.00;;;;;;;;;;10495049;28;21124;-75
2022/07/29 12:21:08;;;;;;;4.13;1.10;;;;;;;;;;10479144;28;20973;-76
2022/07/29 12:26:09;;;;;;;1.02;0.95;;;;;;;;;;10472575;28;20681;-74
2022/07/29 12:31:14;;;;;;;1.00;1.00;;;;;;;;;;10498288;28;20364;-77
2022/07/29 12:36:16;;;;;;;2.83;1.13;;;;;;;;;;10482542;28;20189;-75
2022/07/29 12:41:17;;;;;;;3.42;1.30;;;;;;;;;;10479082;28;20879;-75
2022/07/29 12:46:20;;;;;;;1.67;0.88;;;;;;;;;;10496831;28;20206;-75
2022/07/29 12:51:36;;;;;;;1.75;0.95;;;;;;;;;;10472509;28;20262;-75
2022/07/29 12:56:44;;;;;;;1.42;1.20;;;;;;;;;;10497175;28;20178;-76
2022/07/29 13:01:49;;;;;;;1.15;1.05;;;;;;;;;;10498417;28;20217;-75
2022/07/29 13:06:58;;;;;;;1.42;1.17;;;;;;;;;;10490880;28;20193;-75
2022/07/29 13:12:06;;;;;;;1.00;1.00;;;;;;;;;;10493663;28;20210;-75
2022/07/29 13:17:09;;;;;;;1.33;1.20;;;;;;;;;;10489798;28;20182;-76
2022/07/29 13:22:15;;;;;;;2.33;1.10;;;;;;;;;;10498564;28;20220;-76
2022/07/29 13:27:19;;;;;;;1.70;1.10;;;;;;;;;;10493029;28;21045;-76
2022/07/29 13:32:21;;;;;;;2.47;1.42;;;;;;;;;;10489594;28;20237;-74
2022/07/29 13:37:22;;;;;;;1.58;1.20;;;;;;;;;;10461152;28;20190;-76
2022/07/29 13:42:24;;;;;;;3.90;1.17;;;;;;;;;;10491813;28;20222;-76
2022/07/29 13:47:25;;;;;;;1.75;1.15;;;;;;;;;;10463589;28;20197;-74
2022/07/29 13:52:27;;;;;;;2.45;1.10;;;;;;;;;;10494834;28;20198;-75
2022/07/29 13:57:28;;;;;;;1.70;1.17;;;;;;;;;;10490627;28;20923;-76
2022/07/29 14:02:29;;;;;;;2.83;1.02;;;;;;;;;;10476582;28;20220;-76
2022/07/29 14:07:30;;;;;;;3.88;1.58;;;;;;;;;;10488402;28;20190;-76
2022/07/29 14:12:31;;;;;;;1.40;1.08;;;;;;;;;;10499506;28;20221;-77
2022/07/29 14:17:32;;;;;;;2.00;1.30;;;;;;;;;;10472558;28;20207;-76
2022/07/29 14:22:33;;;;;;;1.30;0.95;;;;;;;;;;10497086;28;20260;-76
2022/07/29 14:27:34;;;;;;;2.92;1.17;;;;;;;;;;10496547;28;20170;-77
2022/07/29 14:32:35;;;;;;;1.08;1.08;;;;;;;;;;10473027;28;20611;-75
2022/07/29 14:37:36;;;;;;;2.67;1.10;;;;;;;;;;10503295;28;20186;-75
2022/07/29 14:42:38;;;;;;;3.55;1.40;;;;;;;;;;10486141;28;20244;-76
2022/07/29 14:47:40;;;;;;;1.55;0.80;;;;;;;;;;10483845;28;20247;-77
2022/07/29 14:52:41;;;;;;;1.33;1.27;;;;;;;;;;10483535;28;20708;-76
2022/07/29 14:57:43;;;;;;;3.65;1.00;;;;;;;;;;10500172;28;20200;-75
2022/07/29 15:02:44;;;;;;;2.03;1.50;;;;;;;;;;10476944;28;20309;-77
2022/07/29 15:07:45;;;;;;;1.63;1.00;;;;;;;;;;10478239;28;20189;-76
2022/07/29 15:12:46;;;;;;;2.78;1.00;;;;;;;;;;10499320;28;20306;-78
2022/07/29 15:17:47;;;;;;;2.70;1.13;;;;;;;;;;10486551;28;20211;-78
2022/07/29 15:22:48;;;;;;;1.25;1.15;;;;;;;;;;10499440;28;20217;-76
2022/07/29 15:27:50;;;;;;;1.40;1.10;;;;;;;;;;10484661;28;20183;-77
2022/07/29 15:32:51;;;;;;;2.35;0.93;;;;;;;;;;10494602;28;21927;-77
2022/07/29 15:37:52;;;;;;;1.98;1.50;;;;;;;;;;10501552;28;20196;-76
2022/07/29 15:42:53;;;;;;;1.00;1.00;;;;;;;;;;10495166;28;20218;-77
2022/07/29 15:47:54;;;;;;;2.05;1.00;;;;;;;;;;10486034;28;20217;-75
2022/07/29 15:52:55;;;;;;;1.83;1.20;;;;;;;;;;10499994;28;20299;-75
2022/07/29 15:57:56;;;;;;;1.58;1.27;;;;;;;;;;10491973;28;20326;-76
2022/07/29 16:02:57;;;;;;;1.33;1.25;;;;;;;;;;10490135;28;21150;-77
2022/07/29 16:07:59;;;;;;;5.07;1.17;;;;;;;;;;10492916;28;20172;-77
2022/07/29 16:13:00;;;;;;;1.42;1.42;;;;;;;;;;10500693;28;20217;-77
2022/07/29 16:18:01;;;;;;;1.15;1.10;;;;;;;;;;10495327;28;20218;-77
2022/07/29 16:23:03;;;;;;;1.38;1.30;;;;;;;;;;10497457;28;20249;-76
2022/07/29 16:28:04;;;;;;;4.00;1.33;;;;;;;;;;10484927;28;20169;-77
2022/07/29 16:33:05;;;;;;;1.25;1.25;;;;;;;;;;10494080;28;20313;-78
2022/07/29 16:38:06;;;;;;;1.30;1.20;;;;;;;;;;10494778;28;20178;-77
2022/07/29 16:43:07;;;;;;;2.33;1.10;;;;;;;;;;10490917;28;20710;-75
2022/07/29 16:48:08;;;;;;;1.90;1.55;;;;;;;;;;10491260;28;20685;-75
2022/07/29 16:53:10;;;;;;;2.28;1.15;;;;;;;;;;10490620;28;20213;-74
2022/07/29 16:58:11;;;;;;;2.00;1.30;;;;;;;;;;10491046;28;20181;-73
2022/07/29 17:03:12;;;;;;;2.17;1.20;;;;;;;;;;10463867;28;20725;-74
2022/07/29 17:08:13;;;;;;;1.77;1.67;;;;;;;;;;10494811;28;20187;-74
2022/07/29 17:13:14;;;;;;;1.95;1.30;;;;;;;;;;10490280;28;20728;-75
2022/07/29 17:18:15;;;;;;;7.38;1.50;;;;;;;;;;10480963;28;20201;-77
2022/07/29 17:23:16;;;;;;;51.92;3.25;;;;;;;;;;10493359;28;20759;-75
2022/07/29 17:28:17;;;;;;;2.00;1.20;;;;;;;;;;10487075;28;20225;-74
2022/07/29 17:33:18;;;;;;;1.60;1.50;;;;;;;;;;10449310;28;20226;-74
2022/07/29 17:38:20;;;;;;;2.90;1.33;;;;;;;;;;10496053;28;20182;-77
2022/07/29 17:43:21;;;;;;;1.75;1.20;;;;;;;;;;10460805;28;20267;-76
2022/07/29 17:48:22;;;;;;;2.67;1.40;;;;;;;;;;10470385;28;20250;-76
2022/07/29 17:53:23;;;;;;;1.88;1.35;;;;;;;;;;10491538;28;20210;-76
2022/07/29 17:58:24;;;;;;;5.15;1.75;;;;;;;;;;10502948;28;20182;-77
2022/07/29 18:03:26;;;;;;;4.35;1.80;;;;;;;;;;10501065;28;20213;-77
2022/07/29 18:08:27;;;;;;;2.40;1.60;;;;;;;;;;10505333;28;20239;-77
2022/07/29 18:13:29;;;;;;;1.88;1.58;;;;;;;;;;10504139;28;20217;-77
2022/07/29 18:18:30;;;;;;;1.50;1.48;;;;;;;;;;10503769;28;20328;-76
2022/07/29 18:23:31;;;;;;;1.85;1.75;;;;;;;;;;10505682;28;20332;-75
2022/07/29 18:28:32;;;;;;;1.92;1.80;;;;;;;;;;10505162;28;20186;-77
2022/07/29 18:33:33;;;;;;;6.97;1.73;;;;;;;;;;10500173;28;20238;-77
2022/07/29 18:38:34;;;;;;;3.88;1.85;;;;;;;;;;10506397;28;20173;-77
2022/07/29 18:43:35;;;;;;;3.70;1.60;;;;;;;;;;10477462;28;20221;-78
2022/07/29 18:48:36;;;;;;;2.03;1.88;;;;;;;;;;10479929;28;20259;-78
2022/07/29 18:53:37;;;;;;;1.63;1.52;;;;;;;;;;10498525;28;20221;-78
2022/07/29 18:58:38;;;;;;;2.35;1.50;;;;;;;;;;10497582;28;20287;-78
2022/07/29 19:03:39;;;;;;;3.65;1.95;;;;;;;;;;10475487;28;20248;-79
2022/07/29 19:08:40;;;;;;;5.25;1.95;;;;;;;;;;10482403;28;20190;-79
2022/07/29 19:13:41;;;;;;;3.22;2.10;;;;;;;;;;10492513;28;20210;-80
2022/07/29 19:18:43;;;;;;;2.53;1.85;;;;;;;;;;10492896;28;20216;-80
2022/07/29 19:23:44;;;;;;;2.08;1.98;;;;;;;;;;10489420;28;20280;-80
2022/07/29 19:28:46;;;;;;;2.75;1.70;;;;;;;;;;10463699;28;20175;-80
2022/07/29 19:33:47;;;;;;;1.55;1.55;;;;;;;;;;10493105;28;20236;-81
2022/07/29 19:38:48;;;;;;;2.15;1.98;;;;;;;;;;10469856;28;20231;-80
2022/07/29 19:43:49;;;;;;;3.30;1.85;;;;;;;;;;10488669;28;20261;-80
2022/07/29 19:48:51;;;;;;;3.08;1.85;;;;;;;;;;10491731;28;20199;-80
2022/07/29 19:53:52;;;;;;;2.17;2.08;;;;;;;;;;10475221;28;20705;-80
2022/07/29 19:58:53;;;;;;;1.73;1.73;;;;;;;;;;10486691;28;20178;-80
2022/07/29 20:03:54;;;;;;;4.13;2.17;;;;;;;;;;10488315;28;20260;-80
2022/07/29 20:08:55;;;;;;;2.28;2.05;;;;;;;;;;10495909;28;20225;-80
2022/07/29 20:13:56;;;;;;;2.08;1.98;;;;;;;;;;10492662;28;20248;-80
2022/07/29 20:18:58;;;;;;;3.05;1.67;;;;;;;;;;10496836;28;20317;-80
2022/07/29 20:24:01;;;;;;;1.75;1.70;;;;;;;;;;10496080;28;20245;-81
2022/07/29 20:29:04;;;;;;;2.20;2.00;;;;;;;;;;10490896;28;20184;-81
2022/07/29 20:34:05;;;;;;;2.10;1.98;;;;;;;;;;10487934;28;20238;-81
2022/07/29 20:39:06;;;;;;;6.35;2.25;;;;;;;;;;10489889;28;20186;-80
2022/07/29 20:44:07;;;;;;;1.75;1.58;;;;;;;;;;10491794;28;20218;-82
2022/07/29 20:49:08;;;;;;;4.85;1.90;;;;;;;;;;10467906;28;20194;-82
2022/07/29 20:54:09;;;;;;;5.47;2.10;;;;;;;;;;10480254;28;20210;-82
2022/07/29 20:59:10;;;;;;;2.80;1.73;;;;;;;;;;10493807;28;20494;-81
2022/07/29 21:04:11;;;;;;;2.10;2.05;;;;;;;;;;10465834;28;20765;-82
2022/07/29 21:09:12;;;;;;;2.90;2.35;;;;;;;;;;10493417;28;20182;-80
2022/07/29 21:14:46;;;;;;;2.55;1.65;;;;;;;;;;10503789;28;20210;-82
2022/07/29 21:19:41;;;;;;;5.28;2.05;;;;;;;;;;10484719;28;20218;-80
2022/07/29 21:24:42;;;;;;;2.28;2.03;;;;;;;;;;10490635;28;20218;-81
2022/07/29 21:29:43;;;;;;;2.35;2.00;;;;;;;;;;10475959;28;20263;-82
2022/07/29 21:34:44;;;;;;;1.98;1.77;;;;;;;;;;10442617;28;20289;-81
2022/07/29 21:39:45;;;;;;;5.85;2.20;;;;;;;;;;10442109;28;20726;-77
2022/07/29 21:44:46;;;;;;;5.15;1.88;;;;;;;;;;10451995;28;20593;-79
2022/07/29 21:49:47;;;;;;;1.70;1.60;;;;;;;;;;10424682;28;20205;-81
2022/07/29 21:54:49;;;;;;;1.73;1.65;;;;;;;;;;10444036;28;20426;-79
2022/07/29 21:59:50;;;;;;;1.75;1.60;;;;;;;;;;10450365;28;20179;-80
2022/07/29 22:04:51;;;;;;;4.20;1.90;;;;;;;;;;10449796;28;20209;-80
2022/07/29 22:09:52;;;;;;;3.95;1.73;;;;;;;;;;10445514;28;20259;-81
2022/07/29 22:14:53;;;;;;;6.28;1.70;;;;;;;;;;10428360;28;20210;-81
2022/07/29 22:19:54;;;;;;;1.52;1.42;;;;;;;;;;10428948;28;20225;-81
2022/07/29 22:24:55;;;;;;;2.08;1.30;;;;;;;;;;10449416;28;20796;-80
2022/07/29 22:29:56;;;;;;;1.55;1.30;;;;;;;;;;10451121;28;20189;-80
2022/07/29 22:34:57;;;;;;;2.30;1.50;;;;;;;;;;10481419;28;20229;-81
2022/07/29 22:39:58;;;;;;;1.10;1.02;;;;;;;;;;10476355;28;20186;-81
2022/07/29 22:44:59;;;;;;;1.48;1.23;;;;;;;;;;10495245;28;20267;-81
2022/07/29 22:50:00;;;;;;;2.67;1.55;;;;;;;;;;10485279;28;20193;-78
2022/07/29 22:55:02;;;;;;;3.47;1.52;;;;;;;;;;10457886;28;20964;-79
2022/07/29 23:00:04;;;;;;;1.52;1.35;;;;;;;;;;10481765;28;20297;-82
2022/07/29 23:05:07;;;;;;;3.65;1.33;;;;;;;;;;10486302;28;20209;-81
2022/07/29 23:10:09;;;;;;;1.73;1.50;;;;;;;;;;10485945;28;20268;-82
2022/07/29 23:15:10;;;;;;;7.68;2.10;;;;;;;;;;10498194;28;20214;-82
2022/07/29 23:20:11;;;;;;;9.98;1.48;;;;;;;;;;10495571;28;20193;-81
2022/07/29 23:25:12;;;;;;;2.05;1.60;;;;;;;;;;10494874;28;20293;-82
2022/07/29 23:30:13;;;;;;;2.60;1.15;;;;;;;;;;10494334;28;20193;-80
2022/07/29 23:35:14;;;;;;;6.03;1.58;;;;;;;;;;10495108;28;20234;-82
2022/07/29 23:40:16;;;;;;;1.85;1.50;;;;;;;;;;10488334;28;20248;-82
2022/07/29 23:45:17;;;;;;;2.47;1.20;;;;;;;;;;10492135;28;20209;-82
2022/07/29 23:50:18;;;;;;;3.47;1.20;;;;;;;;;;10471930;28;20260;-83
2022/07/29 23:55:19;;;;;;;2.45;1.42;;;;;;;;;;10495990;28;20183;-82
